Time;durP1;ratioP1;P1;durP2;ratioP2;P2;SDS_P1;SDS_P2;PMS_P1;PMS_P2;Temp;Humidity;BMP_temperature;BMP_pressure;BME280_temperature;BME280_humidity;BME280_pressure;Samples;Min_cycle;Max_cycle;Signal;HPM_P1;HPM_P2
2022/04/30 00:00:36;;;;;;;1999.90;999.90;;;10.40;99.90;;;;;;4934473;28;20196;-67
2022/04/30 00:03:01;;;;;;;1999.90;999.90;;;10.30;99.90;;;;;;4934214;28;20210;-67
2022/04/30 00:05:30;;;;;;;1999.90;999.90;;;10.30;99.90;;;;;;4934109;28;20407;-67
2022/04/30 00:07:56;;;;;;;1999.90;999.90;;;10.40;99.90;;;;;;4934351;29;20164;-67
2022/04/30 00:10:23;;;;;;;1999.90;999.90;;;10.30;99.90;;;;;;4934244;28;20408;-67
2022/04/30 00:12:49;;;;;;;1999.90;999.90;;;10.20;99.90;;;;;;4934188;28;20426;-67
2022/04/30 00:15:14;;;;;;;1999.90;999.90;;;10.00;99.90;;;;;;4934126;28;20416;-67
2022/04/30 00:17:40;;;;;;;1999.90;999.90;;;10.00;99.90;;;;;;4934475;28;20904;-67
2022/04/30 00:20:07;;;;;;;1999.90;999.90;;;10.00;99.90;;;;;;4934325;28;20198;-67
2022/04/30 00:22:33;;;;;;;1999.90;999.90;;;9.90;99.90;;;;;;4934057;28;20281;-67
2022/04/30 00:24:59;;;;;;;1999.90;999.90;;;9.90;99.90;;;;;;4934210;28;20494;-67
2022/04/30 00:27:24;;;;;;;1999.90;999.90;;;9.90;99.90;;;;;;4934007;28;20233;-67
2022/04/30 00:29:50;;;;;;;1999.90;999.90;;;9.80;99.90;;;;;;4934078;28;20175;-67
2022/04/30 00:32:17;;;;;;;1999.90;999.90;;;9.80;99.90;;;;;;4934252;28;20185;-67
2022/04/30 00:34:42;;;;;;;1999.90;999.90;;;9.80;99.90;;;;;;4933712;28;20497;-67
2022/04/30 00:37:08;;;;;;;1999.90;999.90;;;9.80;99.90;;;;;;4934080;28;20414;-67
2022/04/30 00:39:35;;;;;;;1999.90;999.90;;;9.80;99.90;;;;;;4933886;28;20262;-67
2022/04/30 00:42:00;;;;;;;1999.90;999.90;;;9.80;99.90;;;;;;4933747;28;20269;-67
2022/04/30 00:44:27;;;;;;;1999.90;999.90;;;9.80;99.90;;;;;;4933429;28;20426;-67
2022/04/30 00:46:53;;;;;;;1999.90;999.90;;;9.90;99.90;;;;;;4933821;28;20426;-67
2022/04/30 00:49:19;;;;;;;1999.90;999.90;;;9.80;99.90;;;;;;4934037;28;20811;-67
2022/04/30 00:51:45;;;;;;;1999.90;999.90;;;9.90;99.90;;;;;;4933847;28;20407;-67
2022/04/30 00:54:12;;;;;;;1999.90;999.90;;;9.80;99.90;;;;;;4933720;28;20837;-67
2022/04/30 00:56:47;;;;;;;1999.90;999.90;;;9.90;99.90;;;;;;4932664;29;20197;-67
2022/04/30 00:59:18;;;;;;;1999.90;999.90;;;9.90;99.90;;;;;;4933525;28;20398;-67
2022/04/30 01:01:46;;;;;;;1999.90;999.90;;;9.80;99.90;;;;;;4933655;28;20538;-67
2022/04/30 01:04:12;;;;;;;1999.90;999.90;;;9.70;99.90;;;;;;4933169;28;20434;-67
2022/04/30 01:06:53;;;;;;;1999.90;999.90;;;9.70;99.90;;;;;;4933532;28;20455;-67
2022/04/30 01:09:29;;;;;;;1999.90;999.90;;;9.60;99.90;;;;;;4933726;28;20406;-67
2022/04/30 01:12:09;;;;;;;1999.90;999.90;;;9.60;99.90;;;;;;4933615;28;20423;-67
2022/04/30 01:14:36;;;;;;;1999.90;999.90;;;9.60;99.90;;;;;;4932915;28;20430;-67
2022/04/30 01:17:05;;;;;;;1999.90;999.90;;;9.60;99.90;;;;;;4933410;28;20422;-67
2022/04/30 01:19:37;;;;;;;1999.90;999.90;;;9.60;99.90;;;;;;4933257;29;20430;-67
2022/04/30 01:22:20;;;;;;;1999.90;999.90;;;9.60;99.90;;;;;;4933362;28;20490;-67
2022/04/30 01:24:46;;;;;;;1999.90;999.90;;;9.70;99.90;;;;;;4932817;28;20939;-67
2022/04/30 01:27:14;;;;;;;1999.90;999.90;;;9.60;99.90;;;;;;4933131;29;20556;-67
2022/04/30 01:29:39;;;;;;;1999.90;999.90;;;9.70;99.90;;;;;;4933215;28;20404;-67
2022/04/30 01:37:37;;;;;;;1999.90;999.90;;;9.60;99.90;;;;;;4933295;29;20402;-67
2022/04/30 01:40:08;;;;;;;1999.90;999.90;;;9.60;99.90;;;;;;4932992;28;20410;-67
2022/04/30 01:42:46;;;;;;;1999.90;999.90;;;9.60;99.90;;;;;;4932748;28;20462;-67
2022/04/30 01:45:14;;;;;;;1999.90;999.90;;;9.50;99.90;;;;;;4932649;28;20412;-67
2022/04/30 01:47:41;;;;;;;1999.90;999.90;;;9.60;99.90;;;;;;4932801;28;20907;-67
2022/04/30 01:50:08;;;;;;;1999.90;999.90;;;9.50;99.90;;;;;;4932916;28;20411;-67
2022/04/30 01:52:34;;;;;;;1999.90;999.90;;;9.50;99.90;;;;;;4933021;28;20425;-67
2022/04/30 01:55:00;;;;;;;1999.90;999.90;;;9.50;99.90;;;;;;4932593;28;20446;-66
2022/04/30 01:57:26;;;;;;;1999.90;999.90;;;9.40;99.90;;;;;;4932780;29;20185;-66
2022/04/30 01:59:57;;;;;;;1999.90;999.90;;;9.30;99.90;;;;;;4932597;28;20902;-66
2022/04/30 02:02:26;;;;;;;1999.90;999.90;;;9.30;99.90;;;;;;4932655;28;20821;-67
2022/04/30 02:04:52;;;;;;;1999.90;999.90;;;9.30;99.90;;;;;;4932310;28;20427;-66
2022/04/30 02:07:20;;;;;;;1999.90;999.90;;;9.20;99.90;;;;;;4932579;28;20430;-66
2022/04/30 02:09:47;;;;;;;1999.90;999.90;;;9.20;99.90;;;;;;4932573;28;20407;-66
2022/04/30 02:12:13;;;;;;;1999.90;999.90;;;9.20;99.90;;;;;;4932632;28;20411;-66
2022/04/30 02:14:46;;;;;;;1999.90;999.90;;;9.10;99.90;;;;;;4932120;29;20491;-66
2022/04/30 02:17:12;;;;;;;1999.90;999.90;;;9.00;99.90;;;;;;4932793;28;20484;-66
2022/04/30 02:22:26;;;;;;;1999.90;999.90;;;8.70;99.90;;;;;;4932513;29;20553;-66
2022/04/30 02:24:51;;;;;;;1999.90;999.90;;;8.60;99.90;;;;;;4932151;28;20426;-66
2022/04/30 02:27:17;;;;;;;1999.90;999.90;;;8.50;99.90;;;;;;4932467;28;20415;-67
2022/04/30 02:29:44;;;;;;;1999.90;999.90;;;8.50;99.90;;;;;;4932417;28;20214;-66
2022/04/30 02:32:10;;;;;;;1999.90;999.90;;;8.40;99.90;;;;;;4932279;29;20472;-66
2022/04/30 02:34:35;;;;;;;1999.90;999.90;;;8.40;99.90;;;;;;4932070;28;20427;-66
2022/04/30 02:37:03;;;;;;;1999.90;999.90;;;8.40;99.90;;;;;;4932241;28;20531;-66
2022/04/30 02:39:30;;;;;;;1999.90;999.90;;;8.40;99.90;;;;;;4932217;28;20201;-66
2022/04/30 02:41:56;;;;;;;1999.90;999.90;;;8.50;99.90;;;;;;4932382;28;20473;-66
2022/04/30 02:44:26;;;;;;;1999.90;999.90;;;8.50;99.90;;;;;;4931810;28;20438;-66
2022/04/30 02:46:54;;;;;;;1999.90;999.90;;;8.50;99.90;;;;;;4932277;28;20182;-66
2022/04/30 02:49:21;;;;;;;1999.90;999.90;;;8.40;99.90;;;;;;4932496;28;20425;-66
2022/04/30 02:51:47;;;;;;;1999.90;999.90;;;8.40;99.90;;;;;;4932247;28;20413;-66
2022/04/30 02:54:13;;;;;;;1999.90;999.90;;;8.30;99.90;;;;;;4931917;28;21166;-66
2022/04/30 02:56:39;;;;;;;1999.90;999.90;;;8.20;99.90;;;;;;4932380;28;20564;-66
2022/04/30 03:01:48;;;;;;;1999.90;999.90;;;8.00;99.90;;;;;;4932071;29;20241;-66
2022/04/30 03:04:14;;;;;;;1999.90;999.90;;;8.00;99.90;;;;;;4931623;28;20430;-66
2022/04/30 03:06:39;;;;;;;1999.90;999.90;;;8.00;99.90;;;;;;4931863;28;20171;-66
2022/04/30 03:09:05;;;;;;;1999.90;999.90;;;8.00;99.90;;;;;;4931923;28;20184;-66
2022/04/30 03:11:31;;;;;;;1999.90;999.90;;;8.00;99.90;;;;;;4931937;28;20181;-66
2022/04/30 03:13:57;;;;;;;1999.90;999.90;;;8.00;99.90;;;;;;4931888;28;20635;-66
2022/04/30 03:21:53;;;;;;;1999.90;999.90;;;8.00;99.90;;;;;;4935242;29;20457;-66
2022/04/30 03:24:19;;;;;;;1999.90;999.90;;;7.90;99.90;;;;;;4934651;28;20439;-66
2022/04/30 03:26:46;;;;;;;1999.90;999.90;;;7.90;99.90;;;;;;4935101;28;20404;-66
2022/04/30 03:29:12;;;;;;;1999.90;999.90;;;7.90;99.90;;;;;;4935018;28;20183;-66
2022/04/30 03:31:41;;;;;;;1999.90;999.90;;;7.80;99.90;;;;;;4934977;29;20925;-66
2022/04/30 03:34:10;;;;;;;1999.90;999.90;;;7.80;99.90;;;;;;4973739;22;20294;-73
2022/04/30 03:36:36;;;;;;;1999.90;999.90;;;7.80;99.90;;;;;;4934696;29;20409;-73
2022/04/30 03:39:06;;;;;;;1999.90;999.90;;;7.80;99.90;;;;;;4934828;28;20402;-73
2022/04/30 03:41:31;;;;;;;1999.90;999.90;;;7.70;99.90;;;;;;4934582;28;20552;-73
2022/04/30 03:43:57;;;;;;;1999.90;999.90;;;7.80;99.90;;;;;;4934376;28;20458;-73
2022/04/30 03:46:23;;;;;;;1999.90;999.90;;;7.70;99.90;;;;;;4934469;28;20444;-73
2022/04/30 03:48:53;;;;;;;1999.90;999.90;;;7.70;99.90;;;;;;4934558;28;20166;-73
2022/04/30 03:51:20;;;;;;;1999.90;999.90;;;7.80;99.90;;;;;;4934695;28;20248;-73
2022/04/30 03:53:46;;;;;;;1999.90;999.90;;;7.80;99.90;;;;;;4934540;28;20435;-73
2022/04/30 03:56:12;;;;;;;1999.90;999.90;;;7.80;99.90;;;;;;4934273;28;20404;-73
2022/04/30 03:58:38;;;;;;;1999.90;999.90;;;7.80;99.90;;;;;;4934417;28;20406;-73
2022/04/30 04:01:03;;;;;;;1999.90;999.90;;;7.70;99.90;;;;;;4934351;29;20177;-73
2022/04/30 04:03:29;;;;;;;1999.90;999.90;;;7.70;99.90;;;;;;4934225;28;20364;-73
2022/04/30 04:05:55;;;;;;;1999.90;999.90;;;7.70;99.90;;;;;;4934045;28;20634;-73
2022/04/30 04:08:21;;;;;;;1999.90;999.90;;;7.60;99.90;;;;;;4934373;28;20602;-73
2022/04/30 04:10:47;;;;;;;1999.90;999.90;;;7.60;99.90;;;;;;4934418;28;20208;-73
2022/04/30 04:18:41;;;;;;;1999.90;999.90;;;7.50;99.90;;;;;;4934392;29;20405;-73
2022/04/30 04:21:08;;;;;;;1999.90;999.90;;;7.50;99.90;;;;;;4934039;28;20441;-73
2022/04/30 04:25:59;;;;;;;1999.90;999.90;;;7.50;99.90;;;;;;4933976;28;20279;-73
2022/04/30 04:26:20;;;;;;;1999.90;999.90;;;7.50;99.90;;;;;;4933927;28;20415;-74
2022/04/30 04:28:47;;;;;;;1999.90;999.90;;;7.50;99.90;;;;;;4934059;28;20406;-74
2022/04/30 04:31:13;;;;;;;1999.90;999.90;;;7.50;99.90;;;;;;4932810;28;20406;-74
2022/04/30 04:33:39;;;;;;;1999.90;999.90;;;7.60;99.90;;;;;;4933821;28;20456;-73
2022/04/30 04:36:04;;;;;;;1999.90;999.90;;;7.60;99.90;;;;;;4933591;28;20418;-74
2022/04/30 04:38:31;;;;;;;1999.90;999.90;;;7.70;99.90;;;;;;4933923;28;20181;-74
2022/04/30 04:40:56;;;;;;;1999.90;999.90;;;7.70;99.90;;;;;;4933874;28;20882;-73
2022/04/30 04:43:22;;;;;;;1999.90;999.90;;;7.70;99.90;;;;;;4933658;28;20467;-74
2022/04/30 04:45:48;;;;;;;1999.90;999.90;;;7.80;99.90;;;;;;4933580;28;20253;-73
2022/04/30 04:48:14;;;;;;;1999.90;999.90;;;7.80;99.90;;;;;;4933760;28;20650;-73
2022/04/30 04:50:40;;;;;;;1999.90;999.90;;;7.80;99.90;;;;;;4933607;28;20420;-73
2022/04/30 04:53:06;;;;;;;1999.90;999.90;;;7.80;99.90;;;;;;4933716;28;20490;-73
2022/04/30 04:55:32;;;;;;;1999.90;999.90;;;7.90;99.90;;;;;;4933324;28;20419;-74
2022/04/30 04:57:58;;;;;;;1999.90;999.90;;;7.90;99.90;;;;;;4933571;28;20421;-72
2022/04/30 05:00:23;;;;;;;1999.90;999.90;;;8.00;99.90;;;;;;4933577;28;20184;-73
2022/04/30 05:02:49;;;;;;;1999.90;999.90;;;8.00;99.90;;;;;;4999148;28;20309;-73
2022/04/30 05:05:15;;;;;;;1999.90;999.90;;;8.10;99.90;;;;;;4933063;28;20165;-74
2022/04/30 05:07:41;;;;;;;1999.90;999.90;;;8.10;99.90;;;;;;4933565;28;20169;-73
2022/04/30 05:10:07;;;;;;;1999.90;999.90;;;8.20;99.90;;;;;;4933471;28;20243;-73
2022/04/30 05:12:32;;;;;;;1999.90;999.90;;;8.20;99.90;;;;;;4933284;29;20965;-73
2022/04/30 05:14:58;;;;;;;1999.90;999.90;;;8.30;99.90;;;;;;4932996;28;20440;-72
2022/04/30 05:17:23;;;;;;;1999.90;999.90;;;8.30;99.90;;;;;;4933371;28;20174;-74
2022/04/30 05:19:49;;;;;;;1999.90;999.90;;;8.40;99.90;;;;;;4933186;28;20216;-74
2022/04/30 05:22:14;;;;;;;1999.90;999.90;;;8.40;99.90;;;;;;4933123;28;20200;-74
2022/04/30 05:24:40;;;;;;;1999.90;999.90;;;8.40;99.90;;;;;;4932837;28;20189;-73
2022/04/30 05:27:08;;;;;;;1999.90;999.90;;;8.50;99.90;;;;;;4933214;28;20244;-74
2022/04/30 05:29:34;;;;;;;1999.90;999.90;;;8.50;99.90;;;;;;4933194;28;20173;-73
2022/04/30 05:32:00;;;;;;;1999.90;999.90;;;8.40;99.90;;;;;;4933170;28;20409;-73
2022/04/30 05:34:27;;;;;;;1999.90;999.90;;;8.40;99.90;;;;;;4932558;28;20514;-74
2022/04/30 05:36:53;;;;;;;1999.90;999.90;;;8.30;99.90;;;;;;4933005;28;20775;-74
2022/04/30 05:39:19;;;;;;;1999.90;999.90;;;8.30;99.90;;;;;;4933039;28;20422;-73
2022/04/30 05:41:46;;;;;;;1999.90;999.90;;;8.30;99.90;;;;;;4932574;28;20201;-74
2022/04/30 05:44:12;;;;;;;1999.90;999.90;;;8.10;99.90;;;;;;4932749;28;20658;-73
2022/04/30 05:46:38;;;;;;;1999.90;999.90;;;8.10;99.90;;;;;;4932932;28;20439;-74
2022/04/30 05:49:03;;;;;;;1999.90;999.90;;;8.10;99.90;;;;;;4932748;28;20447;-73
2022/04/30 05:51:29;;;;;;;1999.90;999.90;;;8.10;99.90;;;;;;4932940;28;20257;-74
2022/04/30 05:53:55;;;;;;;1999.90;999.90;;;8.10;99.90;;;;;;4932699;28;20293;-71
2022/04/30 05:56:20;;;;;;;1999.90;999.90;;;8.20;99.90;;;;;;4932263;28;20181;-74
2022/04/30 05:58:46;;;;;;;1999.90;999.90;;;8.20;99.90;;;;;;4932520;28;20178;-74
2022/04/30 06:01:12;;;;;;;1999.90;999.90;;;8.30;99.90;;;;;;4932806;28;20592;-74
2022/04/30 06:03:39;;;;;;;1999.90;999.90;;;8.40;99.90;;;;;;4932564;28;20185;-74
2022/04/30 06:06:05;;;;;;;1999.90;999.90;;;8.40;99.90;;;;;;4932363;28;20172;-74
2022/04/30 06:08:31;;;;;;;1999.90;999.90;;;8.40;99.90;;;;;;4932654;28;20545;-74
2022/04/30 06:10:57;;;;;;;1999.90;999.90;;;8.50;99.90;;;;;;4932449;29;20406;-74
2022/04/30 06:13:23;;;;;;;1999.90;999.90;;;8.60;99.90;;;;;;4932487;28;20436;-73
2022/04/30 06:15:49;;;;;;;1999.90;999.90;;;8.70;99.90;;;;;;4932217;28;20555;-73
2022/04/30 06:18:17;;;;;;;1999.90;999.90;;;8.90;99.90;;;;;;4932377;28;20414;-73
2022/04/30 06:20:43;;;;;;;1999.90;999.90;;;9.00;99.90;;;;;;4932322;29;20280;-73
2022/04/30 06:23:09;;;;;;;1999.90;999.90;;;9.00;99.90;;;;;;4932204;28;20471;-73
2022/04/30 06:25:35;;;;;;;1999.90;999.90;;;9.10;99.90;;;;;;4932030;28;20413;-73
2022/04/30 06:28:01;;;;;;;1999.90;999.90;;;9.20;99.90;;;;;;4932132;29;20181;-73
2022/04/30 06:30:27;;;;;;;1999.90;999.90;;;9.40;99.90;;;;;;4932428;28;20545;-73
2022/04/30 06:32:53;;;;;;;1999.90;999.90;;;9.30;99.90;;;;;;4931946;28;20915;-73
2022/04/30 06:35:19;;;;;;;1999.90;999.90;;;9.10;99.90;;;;;;4931455;28;20457;-74
2022/04/30 06:37:44;;;;;;;1999.90;999.90;;;8.90;99.90;;;;;;4931688;28;20505;-74
2022/04/30 06:40:12;;;;;;;1999.90;999.90;;;8.60;99.90;;;;;;4931775;28;20241;-74
2022/04/30 06:42:42;;;;;;;1999.90;999.90;;;8.50;99.90;;;;;;4932961;28;20200;-74
2022/04/30 06:45:10;;;;;;;1999.90;999.90;;;8.40;99.90;;;;;;4933479;28;20426;-73
2022/04/30 06:47:35;;;;;;;1999.90;999.90;;;8.30;99.90;;;;;;4933366;28;20503;-74
2022/04/30 06:50:01;;;;;;;1999.90;999.90;;;8.20;99.90;;;;;;4935561;28;20933;-73
2022/04/30 06:52:27;;;;;;;1999.90;999.90;;;8.10;99.90;;;;;;4935239;28;20259;-73
2022/04/30 06:57:36;;;;;;;1999.90;999.90;;;7.90;99.90;;;;;;4936652;29;20211;-74
2022/04/30 07:01:25;;;;;;;1999.90;999.90;;;8.00;99.90;;;;;;5001973;28;20426;-73
2022/04/30 07:02:48;;;;;;;1999.90;999.90;;;8.10;99.90;;;;;;4936018;28;20235;-73
2022/04/30 07:05:14;;;;;;;1999.90;999.90;;;8.20;99.90;;;;;;4936105;28;20414;-74
2022/04/30 07:07:39;;;;;;;1999.90;999.90;;;8.30;99.90;;;;;;5002270;28;20650;-73
2022/04/30 07:10:05;;;;;;;1999.90;999.90;;;8.30;99.90;;;;;;4936509;28;20181;-74
2022/04/30 07:12:30;;;;;;;1999.90;999.90;;;8.40;99.90;;;;;;4935943;28;20243;-73
2022/04/30 07:14:56;;;;;;;1999.90;999.90;;;8.50;99.90;;;;;;5000558;28;20199;-74
2022/04/30 07:17:22;;;;;;;1999.90;999.90;;;8.60;99.90;;;;;;4933876;28;20554;-73
2022/04/30 07:19:47;;;;;;;1999.90;999.90;;;8.70;99.90;;;;;;4933930;28;20171;-73
2022/04/30 07:22:13;;;;;;;1999.90;999.90;;;8.90;99.90;;;;;;4933753;28;20202;-73
2022/04/30 07:24:39;;;;;;;1999.90;999.90;;;8.90;99.90;;;;;;4933341;28;20200;-73
2022/04/30 07:27:05;;;;;;;1999.90;999.90;;;9.10;99.90;;;;;;4999402;28;20185;-73
2022/04/30 07:29:32;;;;;;;1999.90;999.90;;;9.20;99.90;;;;;;4933581;28;20859;-73
2022/04/30 07:31:58;;;;;;;1999.90;999.90;;;9.30;99.90;;;;;;4933689;28;20426;-73
2022/04/30 07:34:23;;;;;;;1999.90;999.90;;;9.40;99.90;;;;;;4896267;28;1112010;-73
2022/04/30 07:36:49;;;;;;;1999.90;999.90;;;9.70;99.90;;;;;;4934830;28;20205;-74
2022/04/30 07:39:14;;;;;;;1999.90;999.90;;;10.10;99.90;;;;;;4934760;28;20743;-74
2022/04/30 07:41:40;;;;;;;1999.90;999.90;;;10.40;99.90;;;;;;4934597;28;20207;-73
2022/04/30 07:44:06;;;;;;;1999.90;999.90;;;10.60;99.90;;;;;;4934321;28;20196;-73
2022/04/30 07:46:32;;;;;;;1999.90;999.90;;;10.90;99.90;;;;;;4934655;28;20182;-73
2022/04/30 07:48:57;;;;;;;1999.90;999.90;;;11.10;99.90;;;;;;4929295;28;20168;-74
2022/04/30 07:51:42;;;;;;;1999.90;999.90;;;11.30;99.90;;;;;;4932253;28;20191;-74
2022/04/30 07:54:08;;;;;;;1999.90;999.90;;;11.10;99.90;;;;;;4932469;28;20194;-74
2022/04/30 07:56:34;;;;;;;1999.90;999.90;;;11.20;99.90;;;;;;4932834;28;20411;-71
2022/04/30 07:59:00;;;;;;;1999.90;999.90;;;11.30;99.90;;;;;;4933803;28;20419;-70
2022/04/30 08:01:25;;;;;;;1999.90;999.90;;;11.50;99.90;;;;;;4933411;28;20173;-70
2022/04/30 08:03:51;;;;;;;1999.90;999.90;;;11.70;99.90;;;;;;4933106;28;20192;-72
2022/04/30 08:06:17;;;;;;;1999.90;999.90;;;11.90;99.90;;;;;;4933361;28;20206;-73
2022/04/30 08:08:42;;;;;;;1999.90;999.90;;;11.90;99.90;;;;;;4933614;28;20180;-75
2022/04/30 08:11:08;;;;;;;1999.90;999.90;;;12.00;99.90;;;;;;4933256;28;20175;-72
2022/04/30 08:13:34;;;;;;;1999.90;999.90;;;12.20;99.90;;;;;;4933388;28;20190;-73
2022/04/30 08:16:00;;;;;;;1999.90;999.90;;;12.50;99.90;;;;;;4998200;28;20659;-72
2022/04/30 08:18:26;;;;;;;1999.90;999.90;;;12.40;99.90;;;;;;4932920;28;20420;-73
2022/04/30 08:20:52;;;;;;;1999.90;999.90;;;12.50;99.90;;;;;;4933505;28;20172;-73
2022/04/30 08:23:18;;;;;;;1999.90;999.90;;;12.50;99.90;;;;;;4933084;28;20504;-73
2022/04/30 08:25:44;;;;;;;1999.90;999.90;;;12.60;99.90;;;;;;4932555;28;20423;-73
2022/04/30 08:28:09;;;;;;;1999.90;999.90;;;12.80;99.90;;;;;;4933407;28;20423;-73
2022/04/30 08:30:35;;;;;;;1999.90;999.90;;;13.00;99.90;;;;;;4933015;28;20173;-74
2022/04/30 08:33:01;;;;;;;1999.90;999.90;;;13.20;99.90;;;;;;4932635;28;20181;-74
2022/04/30 08:35:26;;;;;;;1999.90;999.90;;;13.40;99.90;;;;;;4933106;28;20197;-73
2022/04/30 08:37:52;;;;;;;1999.90;999.90;;;13.40;99.90;;;;;;4933238;28;20181;-74
2022/04/30 08:40:18;;;;;;;1999.90;999.90;;;13.20;99.90;;;;;;4932934;28;20177;-73
2022/04/30 08:42:44;;;;;;;1999.90;999.90;;;12.70;99.90;;;;;;4932900;28;20831;-73
2022/04/30 08:45:10;;;;;;;1999.90;999.90;;;12.20;99.90;;;;;;4932268;28;20202;-73
2022/04/30 08:47:40;;;;;;;1999.90;999.90;;;11.70;99.90;;;;;;4933071;28;20172;-73
2022/04/30 08:50:15;;;;;;;1999.90;999.90;;;11.40;99.90;;;;;;4932694;28;20415;-73
2022/04/30 08:52:41;;;;;;;1999.90;999.90;;;11.30;99.90;;;;;;4933087;28;20414;-74
2022/04/30 08:55:08;;;;;;;1999.90;999.90;;;11.50;99.90;;;;;;4932378;28;20446;-73
2022/04/30 08:57:34;;;;;;;1999.90;999.90;;;11.50;99.90;;;;;;4933085;28;20175;-74
2022/04/30 09:00:00;;;;;;;1999.90;999.90;;;11.50;99.90;;;;;;4932768;28;20530;-73
2022/04/30 09:02:26;;;;;;;1999.90;999.90;;;11.40;99.90;;;;;;4932572;28;20462;-74
2022/04/30 09:04:52;;;;;;;1999.90;999.90;;;11.20;99.90;;;;;;4931991;28;20800;-73
2022/04/30 09:07:20;;;;;;;1999.90;999.90;;;11.40;99.90;;;;;;4932766;28;20411;-74
2022/04/30 09:10:20;;;;;;;1999.90;999.90;;;12.00;99.90;;;;;;4932747;28;20629;-74
2022/04/30 09:12:46;;;;;;;1999.90;999.90;;;12.70;99.90;;;;;;4932577;28;20478;-73
2022/04/30 09:15:15;;;;;;;1999.90;999.90;;;13.20;99.90;;;;;;4932332;28;20408;-74
2022/04/30 09:17:41;;;;;;;1999.90;999.90;;;13.40;99.90;;;;;;4931603;28;20427;-74
2022/04/30 09:20:08;;;;;;;1999.90;999.90;;;13.30;99.90;;;;;;4932627;28;20776;-74
2022/04/30 09:22:35;;;;;;;1999.90;999.90;;;13.00;99.90;;;;;;4997435;28;20209;-73
2022/04/30 09:25:02;;;;;;;1999.90;999.90;;;12.70;99.90;;;;;;4931363;28;20431;-74
2022/04/30 09:27:29;;;;;;;1999.90;999.90;;;12.50;99.90;;;;;;4932249;28;20422;-74
2022/04/30 09:29:55;;;;;;;1999.90;999.90;;;12.30;99.90;;;;;;4932234;28;20416;-74
2022/04/30 09:32:23;;;;;;;1999.90;999.90;;;12.30;99.90;;;;;;4931680;28;20477;-74
2022/04/30 09:37:49;;;;;;;1999.90;999.90;;;12.30;99.90;;;;;;4932547;29;20473;-73
2022/04/30 09:40:14;;;;;;;1999.90;999.90;;;12.50;99.90;;;;;;4931793;28;20443;-73
2022/04/30 09:42:48;;;;;;;1999.90;999.90;;;12.80;99.90;;;;;;4932219;28;20486;-73
2022/04/30 09:45:29;;;;;;;1999.90;999.90;;;12.50;99.90;;;;;;4931873;28;20168;-74
2022/04/30 09:47:56;;;;;;;1999.90;999.90;;;12.60;99.90;;;;;;4931952;28;20451;-73
2022/04/30 09:55:54;;;;;;;1999.90;999.90;;;13.20;99.90;;;;;;4932134;29;20396;-74
2022/04/30 09:58:28;;;;;;;1999.90;999.90;;;13.50;99.90;;;;;;4932056;28;20495;-74
2022/04/30 10:00:58;;;;;;;1999.90;999.90;;;13.50;99.90;;;;;;4931903;28;20426;-73
2022/04/30 10:03:30;;;;;;;1999.90;999.90;;;13.40;99.90;;;;;;4931196;28;21020;-73
2022/04/30 10:06:04;;;;;;;1999.90;999.90;;;13.20;99.90;;;;;;4931557;28;20554;-73
2022/04/30 10:08:37;;;;;;;1999.90;999.90;;;13.20;99.90;;;;;;4997490;28;20442;-74
2022/04/30 10:11:05;;;;;;;1999.90;999.90;;;13.20;99.90;;;;;;4931330;28;20791;-74
2022/04/30 10:14:08;;;;;;;1999.90;999.90;;;13.10;99.90;;;;;;4931587;28;20793;-74
2022/04/30 10:16:34;;;;;;;1999.90;999.90;;;13.10;99.90;;;;;;4997085;28;20432;-77
2022/04/30 10:19:15;;;;;;;1999.90;999.90;;;13.10;99.90;;;;;;4931939;28;20424;-74
2022/04/30 10:21:42;;;;;;;1999.90;999.90;;;13.00;99.90;;;;;;4931754;28;20489;-75
2022/04/30 10:24:12;;;;;;;1999.90;999.90;;;13.40;99.90;;;;;;4930152;28;20428;-75
2022/04/30 10:26:57;;;;;;;1999.90;999.90;;;13.30;99.90;;;;;;4931347;28;20411;-76
2022/04/30 10:29:22;;;;;;;1999.90;999.90;;;13.20;99.90;;;;;;4931424;28;20432;-75
2022/04/30 10:31:49;;;;;;;1999.90;999.90;;;13.30;99.90;;;;;;4930914;28;20826;-75
2022/04/30 10:34:15;;;;;;;1999.90;999.90;;;13.70;99.90;;;;;;4930793;28;20279;-75
2022/04/30 10:36:40;;;;;;;1999.90;999.90;;;13.70;99.90;;;;;;4931448;28;20413;-73
2022/04/30 10:39:17;;;;;;;1999.90;999.90;;;13.70;99.90;;;;;;4931071;28;20249;-75
2022/04/30 10:41:48;;;;;;;1999.90;999.90;;;13.80;99.90;;;;;;4931366;28;20195;-74
2022/04/30 10:44:14;;;;;;;1999.90;999.90;;;14.20;99.90;;;;;;4931037;28;20422;-74
2022/04/30 10:46:42;;;;;;;1999.90;999.90;;;14.40;99.90;;;;;;4930766;28;20415;-74
2022/04/30 10:49:08;;;;;;;1999.90;999.90;;;14.70;99.90;;;;;;4931259;28;20619;-74
2022/04/30 10:51:38;;;;;;;1999.90;999.90;;;14.80;99.90;;;;;;4931119;28;20437;-74
2022/04/30 10:54:09;;;;;;;1999.90;999.90;;;14.60;99.90;;;;;;4930360;28;20505;-73
2022/04/30 10:56:35;;;;;;;1999.90;999.90;;;14.60;99.90;;;;;;4931379;28;20419;-74
2022/04/30 10:59:00;;;;;;;1999.90;999.90;;;14.80;99.90;;;;;;4931365;28;20465;-73
2022/04/30 11:01:26;;;;;;;1999.90;999.90;;;15.10;99.90;;;;;;4930535;28;20889;-74
2022/04/30 11:03:52;;;;;;;1999.90;999.90;;;15.20;99.90;;;;;;4931048;28;20204;-74
2022/04/30 11:06:22;;;;;;;1999.90;999.90;;;15.50;99.90;;;;;;4930577;28;20181;-74
2022/04/30 11:09:00;;;;;;;1999.90;999.90;;;16.00;99.90;;;;;;4930659;28;20174;-74
2022/04/30 11:11:26;;;;;;;1999.90;999.90;;;16.20;99.90;;;;;;4930957;28;20419;-74
2022/04/30 11:14:11;;;;;;;1999.90;999.90;;;15.80;97.60;;;;;;4930624;28;20442;-74
2022/04/30 11:16:41;;;;;;;1999.90;999.90;;;15.40;98.20;;;;;;4930852;28;20494;-74
2022/04/30 11:19:10;;;;;;;1999.90;999.90;;;15.10;99.90;;;;;;4931067;29;20416;-74
2022/04/30 11:21:44;;;;;;;1999.90;999.90;;;14.90;99.90;;;;;;4996545;28;20419;-75
2022/04/30 11:24:11;;;;;;;1999.90;999.90;;;14.80;99.90;;;;;;4930630;28;20442;-75
2022/04/30 11:26:42;;;;;;;1999.90;999.90;;;14.90;99.90;;;;;;4930791;28;20403;-75
2022/04/30 11:29:12;;;;;;;1999.90;999.90;;;15.10;99.90;;;;;;4931069;28;20905;-76
2022/04/30 11:31:39;;;;;;;1999.90;999.90;;;15.20;99.80;;;;;;4930403;28;20407;-75
2022/04/30 11:34:11;;;;;;;1999.90;999.90;;;15.20;99.70;;;;;;4930370;28;20557;-75
2022/04/30 11:36:39;;;;;;;1999.90;999.90;;;15.30;99.10;;;;;;4931167;28;20830;-75
2022/04/30 11:39:04;;;;;;;1999.90;999.90;;;15.60;98.20;;;;;;4931022;28;20421;-75
2022/04/30 11:41:41;;;;;;;1999.90;999.90;;;15.90;98.60;;;;;;4934274;28;20440;-75
2022/04/30 11:44:09;;;;;;;1999.90;999.90;;;16.40;98.30;;;;;;4934198;28;20275;-75
2022/04/30 11:46:39;;;;;;;1999.90;999.90;;;17.00;95.50;;;;;;4933953;28;20496;-76
2022/04/30 11:49:15;;;;;;;1999.90;999.90;;;17.30;88.00;;;;;;4934322;28;20500;-75
2022/04/30 11:51:42;;;;;;;1999.90;999.90;;;17.30;93.70;;;;;;4934141;28;20475;-75
2022/04/30 11:54:10;;;;;;;1999.90;999.90;;;17.50;94.10;;;;;;4932895;28;20438;-75
2022/04/30 11:56:37;;;;;;;1999.90;999.90;;;17.40;92.70;;;;;;4934327;28;20468;-76
2022/04/30 11:59:03;;;;;;;1999.90;999.90;;;17.40;88.60;;;;;;4934248;28;20419;-76
2022/04/30 12:01:30;;;;;;;1999.90;999.90;;;17.20;90.20;;;;;;4933320;28;20507;-75
2022/04/30 12:04:02;;;;;;;1999.90;999.90;;;16.30;92.30;;;;;;4933528;28;20467;-75
2022/04/30 12:06:28;;;;;;;1999.90;999.90;;;15.70;93.50;;;;;;4933890;28;20416;-74
2022/04/30 12:08:54;;;;;;;1999.90;999.90;;;15.40;96.80;;;;;;4933407;28;20422;-75
2022/04/30 12:11:20;;;;;;;1999.90;999.90;;;15.80;93.10;;;;;;4934247;28;20415;-75
2022/04/30 12:14:07;;;;;;;1999.90;999.90;;;16.40;94.70;;;;;;4933319;28;20438;-75
2022/04/30 12:16:44;;;;;;;1999.90;999.90;;;17.20;95.20;;;;;;4933292;28;20604;-76
2022/04/30 12:25:12;;;;;;;1999.90;999.90;;;18.80;59.90;;;;;;4932868;29;20439;-75
2022/04/30 12:27:40;;;;;;;1999.90;999.90;;;17.80;70.40;;;;;;4933604;28;20410;-75
2022/04/30 12:30:14;;;;;;;1999.90;999.90;;;18.10;68.80;;;;;;4933493;28;20416;-75
2022/04/30 12:32:49;;;;;;;1999.90;999.90;;;19.00;65.10;;;;;;4933623;28;20519;-75
2022/04/30 12:35:22;;;;;;;1999.90;999.90;;;19.20;58.90;;;;;;4932712;28;20422;-75
2022/04/30 12:37:48;;;;;;;1999.90;999.90;;;18.60;59.00;;;;;;4932818;28;20410;-74
2022/04/30 12:40:13;;;;;;;1999.90;999.90;;;19.20;61.60;;;;;;4933242;28;20506;-75
2022/04/30 12:42:41;;;;;;;1999.90;999.90;;;19.90;54.60;;;;;;4933164;28;20211;-75
2022/04/30 12:45:07;;;;;;;1999.90;999.90;;;20.70;50.80;;;;;;4932126;28;20184;-75